createdAt,value
2023-04-18T00:01:18.775Z,79.26
2023-04-18T00:03:45.890Z,78.88
2023-04-18T00:06:13.766Z,77.72
2023-04-18T00:08:40.400Z,76.93
2023-04-18T00:11:06.980Z,77.00
2023-04-18T00:13:33.534Z,76.49
2023-04-18T00:15:59.873Z,75.42
2023-04-18T00:18:27.121Z,75.40
2023-04-18T00:20:54.099Z,74.30
2023-04-18T00:23:21.464Z,73.13
2023-04-18T00:25:48.745Z,73.33
2023-04-18T00:28:15.204Z,73.04
2023-04-18T00:30:41.766Z,71.24
2023-04-18T00:33:08.877Z,71.43
2023-04-18T00:35:35.338Z,70.44
2023-04-18T00:38:01.747Z,70.36
2023-04-18T00:40:28.166Z,69.79
2023-04-18T00:42:54.564Z,69.46
2023-04-18T00:45:21.213Z,69.53
2023-04-18T00:47:47.616Z,69.35
2023-04-18T00:50:15.357Z,68.26
2023-04-18T00:52:42.239Z,68.07
2023-04-18T00:55:09.315Z,67.98
2023-04-18T00:57:36.462Z,68.33
2023-04-18T01:00:09.256Z,67.30
2023-04-18T01:02:36.566Z,68.60
2023-04-18T01:05:04.172Z,67.79
2023-04-18T01:07:35.878Z,68.23
2023-04-18T01:10:02.566Z,67.92
2023-04-18T01:12:28.987Z,68.40
2023-04-18T01:14:55.490Z,68.56
2023-04-18T01:17:23.382Z,68.30
2023-04-18T01:19:49.841Z,68.18
2023-04-18T01:22:17.174Z,68.21
2023-04-18T01:24:43.552Z,67.81
2023-04-18T01:27:13.857Z,67.32
2023-04-18T01:29:41.012Z,67.63
2023-04-18T01:32:07.533Z,67.73
2023-04-18T01:34:34.180Z,67.71
2023-04-18T01:37:00.793Z,67.57
2023-04-18T01:39:27.971Z,67.14
2023-04-18T01:41:54.314Z,67.41
2023-04-18T01:44:20.682Z,67.56
2023-04-18T01:46:47.113Z,67.48
2023-04-18T01:49:13.537Z,67.54
2023-04-18T01:51:40.006Z,67.25
2023-04-18T01:54:06.405Z,67.70
2023-04-18T01:56:32.939Z,67.27
2023-04-18T01:58:59.349Z,66.78
2023-04-18T02:01:25.767Z,67.21
2023-04-18T02:03:52.326Z,66.90
2023-04-18T02:06:18.826Z,66.97
2023-04-18T02:08:45.334Z,66.82
2023-04-18T02:11:11.698Z,66.87
2023-04-18T02:13:38.073Z,66.77
2023-04-18T02:16:04.718Z,67.79
2023-04-18T02:18:34.513Z,67.21
2023-04-18T02:21:00.978Z,67.52
2023-04-18T02:23:27.334Z,67.76
2023-04-18T02:25:53.791Z,67.91
2023-04-18T02:28:20.158Z,67.90
2023-04-18T02:30:46.528Z,68.36
2023-04-18T02:33:13.003Z,68.17
2023-04-18T02:35:40.598Z,68.54
2023-04-18T02:38:07.018Z,68.28
2023-04-18T02:40:33.589Z,69.01
2023-04-18T02:43:00.054Z,68.50
2023-04-18T02:45:26.473Z,68.38
2023-04-18T02:47:55.997Z,68.52
2023-04-18T02:50:22.942Z,68.71
2023-04-18T02:52:49.340Z,68.19
2023-04-18T02:55:16.149Z,68.69
2023-04-18T02:57:42.597Z,68.87
2023-04-18T03:00:09.396Z,68.50
2023-04-18T03:02:35.938Z,68.16
2023-04-18T03:05:02.799Z,68.60
2023-04-18T03:07:30.755Z,68.66
2023-04-18T03:09:57.307Z,68.01
2023-04-18T03:12:23.774Z,68.45
2023-04-18T03:14:50.225Z,68.67
2023-04-18T03:17:16.672Z,68.07
2023-04-18T03:19:43.077Z,68.42
2023-04-18T03:22:09.984Z,68.14
2023-04-18T03:24:36.356Z,68.55
2023-04-18T03:27:02.784Z,68.13
2023-04-18T03:29:29.201Z,68.34
2023-04-18T03:31:55.580Z,68.64
2023-04-18T03:34:21.964Z,69.22
2023-04-18T03:36:48.434Z,68.17
2023-04-18T03:39:14.973Z,68.70
2023-04-18T03:41:41.383Z,68.54
2023-04-18T03:44:07.812Z,68.17
2023-04-18T03:46:35.083Z,68.71
2023-04-18T03:49:01.507Z,67.92
2023-04-18T03:51:32.405Z,68.43
2023-04-18T03:53:58.736Z,69.10
2023-04-18T03:56:25.980Z,68.27
2023-04-18T03:58:52.363Z,69.06
2023-04-18T04:01:18.760Z,69.10
2023-04-18T04:03:45.359Z,68.83
2023-04-18T04:06:11.871Z,69.04
2023-04-18T04:08:38.258Z,68.81
2023-04-18T04:11:04.797Z,68.36
2023-04-18T04:13:31.156Z,68.91
2023-04-18T04:15:57.606Z,69.26
2023-04-18T04:18:29.886Z,69.27
2023-04-18T04:20:57.765Z,68.75
2023-04-18T04:23:25.463Z,68.81
2023-04-18T04:25:55.751Z,68.74
2023-04-18T04:28:23.412Z,69.47
2023-04-18T04:30:50.871Z,69.73
2023-04-18T04:33:21.341Z,69.39
2023-04-18T04:35:47.801Z,69.81
2023-04-18T04:38:15.335Z,69.81
2023-04-18T04:40:42.306Z,69.45
2023-04-18T04:43:12.842Z,69.72
2023-04-18T04:45:42.219Z,69.85
2023-04-18T04:48:09.577Z,69.71
2023-04-18T04:50:37.995Z,69.81
2023-04-18T04:53:05.242Z,70.23
2023-04-18T04:55:32.750Z,69.85
2023-04-18T04:57:59.351Z,70.21
2023-04-18T05:00:26.394Z,70.30
2023-04-18T05:02:57.603Z,69.95
2023-04-18T05:05:24.191Z,70.35
2023-04-18T05:07:50.676Z,70.09
2023-04-18T05:10:17.115Z,70.35
2023-04-18T05:12:43.487Z,70.39
2023-04-18T05:15:10.479Z,70.93
2023-04-18T05:17:36.906Z,70.82
2023-04-18T05:20:04.220Z,71.42
2023-04-18T05:22:30.667Z,70.58
2023-04-18T05:24:57.103Z,71.41
2023-04-18T05:27:23.886Z,70.75
2023-04-18T05:29:50.955Z,71.31
2023-04-18T05:32:17.515Z,70.98
2023-04-18T05:34:44.044Z,71.63
2023-04-18T05:37:10.712Z,71.70
2023-04-18T05:39:37.125Z,71.60
2023-04-18T05:42:03.631Z,71.72
2023-04-18T05:44:30.286Z,71.98
2023-04-18T05:46:56.754Z,71.73
2023-04-18T05:49:23.627Z,72.01
2023-04-18T05:51:50.036Z,72.35
2023-04-18T05:54:17.026Z,72.52
2023-04-18T05:56:43.559Z,72.38
2023-04-18T05:59:09.912Z,72.95
2023-04-18T06:01:36.325Z,72.65
2023-04-18T06:04:02.950Z,72.74
2023-04-18T06:06:29.541Z,72.99
2023-04-18T06:08:55.941Z,72.89
2023-04-18T06:11:22.659Z,72.59
2023-04-18T06:13:49.172Z,73.30
2023-04-18T06:16:16.104Z,73.19
2023-04-18T06:18:42.638Z,73.35
2023-04-18T06:21:09.099Z,73.14
2023-04-18T06:23:35.625Z,73.19
2023-04-18T06:26:02.102Z,73.09
2023-04-18T06:28:28.517Z,73.25
2023-04-18T06:30:54.977Z,73.43
2023-04-18T06:33:21.450Z,73.98
2023-04-18T06:35:47.920Z,73.32
2023-04-18T06:38:14.648Z,73.91
2023-04-18T06:40:41.211Z,73.46
2023-04-18T06:43:07.685Z,73.38
2023-04-18T06:45:34.290Z,73.26
2023-04-18T06:48:03.548Z,73.36
2023-04-18T06:50:30.552Z,72.91
2023-04-18T06:52:56.991Z,72.98
2023-04-18T06:55:23.356Z,72.73
2023-04-18T06:57:49.707Z,73.12
2023-04-18T07:00:16.394Z,73.54
2023-04-18T07:02:43.013Z,73.15
2023-04-18T07:05:09.670Z,73.52
2023-04-18T07:07:36.164Z,73.08
2023-04-18T07:10:02.752Z,73.50
2023-04-18T07:12:29.132Z,73.34
2023-04-18T07:14:55.519Z,73.57
2023-04-18T07:17:21.935Z,73.17
2023-04-18T07:19:48.357Z,72.98
2023-04-18T07:22:14.851Z,73.43
2023-04-18T07:24:41.265Z,73.36
2023-04-18T07:27:09.576Z,73.28
2023-04-18T07:29:36.238Z,73.39
2023-04-18T07:32:08.118Z,73.58
2023-04-18T07:34:37.455Z,73.52
2023-04-18T07:37:03.893Z,73.29
2023-04-18T07:39:31.918Z,73.53
2023-04-18T07:41:59.006Z,72.88
2023-04-18T07:44:25.510Z,73.15
2023-04-18T07:46:52.281Z,73.14
2023-04-18T07:49:18.741Z,72.89
2023-04-18T07:51:45.151Z,72.81
2023-04-18T07:54:11.607Z,72.63
2023-04-18T07:56:38.152Z,72.07
2023-04-18T07:59:04.582Z,72.21
2023-04-18T08:01:31.624Z,71.45
2023-04-18T08:04:01.752Z,72.20
2023-04-18T08:06:29.080Z,71.69
2023-04-18T08:08:55.552Z,71.28
2023-04-18T08:11:21.959Z,71.20
2023-04-18T08:13:48.539Z,71.34
2023-04-18T08:16:17.047Z,70.71
2023-04-18T08:18:49.040Z,70.87
2023-04-18T08:21:15.734Z,70.79
2023-04-18T08:23:44.426Z,70.64
2023-04-18T08:26:13.810Z,70.89
2023-04-18T08:28:41.156Z,70.12
2023-04-18T08:31:12.020Z,70.06
2023-04-18T08:33:38.550Z,69.95
2023-04-18T08:36:05.366Z,70.13
2023-04-18T08:38:31.844Z,69.72
2023-04-18T08:40:59.386Z,69.74
2023-04-18T08:43:25.828Z,70.14
2023-04-18T08:45:58.787Z,70.72
2023-04-18T08:48:26.417Z,70.42
2023-04-18T08:50:57.106Z,70.30
2023-04-18T08:53:23.508Z,70.25
2023-04-18T08:55:57.102Z,69.94
2023-04-18T08:58:27.051Z,70.39
2023-04-18T09:00:54.609Z,69.50
2023-04-18T09:03:39.759Z,69.77
2023-04-18T09:06:12.407Z,70.16
2023-04-18T09:08:40.186Z,69.65
2023-04-18T09:11:26.614Z,70.11
2023-04-18T09:13:53.560Z,69.81
2023-04-18T09:16:22.380Z,70.36
2023-04-18T09:19:10.457Z,70.30
2023-04-18T09:21:42.405Z,69.49
2023-04-18T09:24:29.326Z,69.43
2023-04-18T09:26:57.155Z,69.33
2023-04-18T09:29:42.379Z,68.93
2023-04-18T09:32:08.864Z,68.32
2023-04-18T09:34:41.719Z,68.98
2023-04-18T09:37:10.682Z,68.79
2023-04-18T09:39:39.477Z,69.08
2023-04-18T09:42:06.252Z,68.75
2023-04-18T09:44:32.753Z,68.61
2023-04-18T09:46:59.218Z,69.18
2023-04-18T09:49:25.777Z,67.96
2023-04-18T09:51:54.337Z,67.81
2023-04-18T09:54:24.026Z,68.13
2023-04-18T09:56:53.407Z,68.16
2023-04-18T09:59:37.940Z,68.26
2023-04-18T10:02:06.762Z,67.64
2023-04-18T10:04:34.419Z,67.67
2023-04-18T10:07:01.861Z,68.02
2023-04-18T10:09:33.129Z,68.35
2023-04-18T10:12:02.209Z,68.02
2023-04-18T10:14:32.910Z,67.97
2023-04-18T10:17:00.049Z,68.02
2023-04-18T10:19:28.398Z,68.52
2023-04-18T10:21:59.333Z,68.58
2023-04-18T10:24:53.305Z,68.46
2023-04-18T10:27:48.943Z,69.42
2023-04-18T10:30:16.674Z,68.51
2023-04-18T10:32:43.399Z,68.20
2023-04-18T10:35:10.646Z,68.18
2023-04-18T10:37:50.650Z,68.30
2023-04-18T10:40:17.686Z,68.46
2023-04-18T10:42:46.887Z,67.00
2023-04-18T10:45:28.535Z,67.59
2023-04-18T10:48:30.103Z,66.60
2023-04-18T10:51:16.490Z,66.34
2023-04-18T10:53:52.918Z,66.07
2023-04-18T10:56:19.981Z,65.68
2023-04-18T10:58:51.120Z,65.63
2023-04-18T11:01:32.019Z,65.43
2023-04-18T11:03:59.842Z,65.08
2023-04-18T11:06:31.203Z,64.92
2023-04-18T11:09:11.925Z,65.29
2023-04-18T11:11:38.560Z,65.50
2023-04-18T11:14:05.042Z,65.56
2023-04-18T11:16:33.969Z,65.84
2023-04-18T11:19:01.043Z,66.04
2023-04-18T11:21:30.402Z,66.55
2023-04-18T11:23:58.096Z,65.57
2023-04-18T11:26:28.944Z,65.78
2023-04-18T11:28:58.886Z,66.40
2023-04-18T11:31:25.466Z,66.31
2023-04-18T11:33:52.160Z,66.73
2023-04-18T11:36:18.708Z,66.26
2023-04-18T11:38:45.202Z,67.12
2023-04-18T11:41:15.688Z,66.90
2023-04-18T11:43:44.793Z,66.95
2023-04-18T11:46:12.343Z,66.73
2023-04-18T11:48:43.249Z,66.21
2023-04-18T11:51:35.993Z,66.45
2023-04-18T11:54:02.577Z,65.94
2023-04-18T11:56:28.979Z,65.74
2023-04-18T11:58:56.303Z,66.48
2023-04-18T12:01:25.160Z,66.49
2023-04-18T12:04:05.381Z,66.81
2023-04-18T12:06:51.791Z,66.68
2023-04-18T12:09:19.132Z,66.90
2023-04-18T12:12:03.157Z,66.56
2023-04-18T12:14:30.427Z,66.47
2023-04-18T12:16:56.903Z,66.11
2023-04-18T12:19:30.072Z,65.89
2023-04-18T12:22:00.804Z,66.00
2023-04-18T12:24:28.972Z,66.32
2023-04-18T12:26:57.494Z,66.15
2023-04-18T12:29:24.775Z,66.28
2023-04-18T12:31:51.600Z,65.78
2023-04-18T12:34:18.022Z,65.48
2023-04-18T12:36:44.585Z,65.93
2023-04-18T12:39:11.127Z,66.05
2023-04-18T12:41:37.539Z,66.43
2023-04-18T12:44:04.461Z,66.93
2023-04-18T12:46:31.314Z,66.84
2023-04-18T12:48:57.800Z,67.22
2023-04-18T12:51:26.543Z,66.27
2023-04-18T12:53:52.945Z,66.97
2023-04-18T12:56:19.400Z,67.24
2023-04-18T12:58:45.814Z,67.26
2023-04-18T13:01:14.170Z,67.54
2023-04-18T13:03:41.257Z,67.30
2023-04-18T13:06:07.975Z,67.37
2023-04-18T13:08:34.913Z,67.53
2023-04-18T13:11:01.458Z,67.60
2023-04-18T13:13:30.807Z,68.17
2023-04-18T13:15:57.233Z,67.70
2023-04-18T13:18:23.687Z,67.80
2023-04-18T13:20:50.323Z,67.97
2023-04-18T13:23:16.735Z,68.41
2023-04-18T13:25:53.705Z,68.42
2023-04-18T13:28:20.128Z,67.79
2023-04-18T13:30:46.520Z,67.71
2023-04-18T13:33:13.231Z,67.51
2023-04-18T13:35:41.561Z,67.48
2023-04-18T13:38:07.936Z,67.51
2023-04-18T13:40:34.515Z,67.72
2023-04-18T13:43:00.962Z,67.93
2023-04-18T13:45:27.466Z,67.25
2023-04-18T13:47:54.045Z,67.51
2023-04-18T13:50:20.836Z,67.37
2023-04-18T13:52:49.188Z,67.15
2023-04-18T13:55:16.095Z,67.35
2023-04-18T13:57:42.464Z,66.70
2023-04-18T14:00:09.618Z,67.00
2023-04-18T14:02:36.271Z,67.19
2023-04-18T14:05:02.924Z,66.97
2023-04-18T14:07:29.457Z,65.82
2023-04-18T14:09:55.850Z,65.78
2023-04-18T14:12:22.343Z,64.62
2023-04-18T14:14:48.802Z,64.54
2023-04-18T14:17:15.233Z,64.28
2023-04-18T14:19:41.642Z,64.05
2023-04-18T14:22:08.000Z,63.77
2023-04-18T14:24:37.489Z,64.20
2023-04-18T14:27:04.059Z,64.19
2023-04-18T14:29:30.410Z,63.94
2023-04-18T14:31:56.869Z,64.71
2023-04-18T14:34:23.224Z,64.55
2023-04-18T14:36:49.669Z,63.87
2023-04-18T14:39:16.316Z,63.37
2023-04-18T14:41:42.720Z,63.48
2023-04-18T14:44:09.230Z,63.49
2023-04-18T14:46:35.611Z,63.98
2023-04-18T14:49:02.053Z,64.04
2023-04-18T14:51:28.416Z,63.44
2023-04-18T14:53:55.526Z,63.30
2023-04-18T14:56:23.966Z,63.23
2023-04-18T14:58:50.541Z,62.78
2023-04-18T15:01:19.958Z,63.33
2023-04-18T15:03:46.600Z,63.29
2023-04-18T15:06:13.297Z,62.84
2023-04-18T15:08:39.718Z,62.68
2023-04-18T15:11:07.522Z,62.66
2023-04-18T15:13:34.018Z,62.81
2023-04-18T15:16:00.540Z,62.53
2023-04-18T15:18:27.026Z,62.07
2023-04-18T15:20:53.827Z,61.90
2023-04-18T15:23:20.484Z,62.04
2023-04-18T15:25:47.035Z,62.66
2023-04-18T15:28:13.948Z,61.84
2023-04-18T15:30:40.688Z,62.37
2023-04-18T15:33:07.504Z,61.54
2023-04-18T15:35:33.995Z,61.50
2023-04-18T15:38:00.451Z,61.88
2023-04-18T15:40:26.895Z,61.70
2023-04-18T15:42:54.344Z,61.79
2023-04-18T15:45:21.303Z,61.60
2023-04-18T15:47:47.986Z,61.64
2023-04-18T15:50:15.954Z,61.69
2023-04-18T15:52:42.518Z,61.00
2023-04-18T15:55:11.832Z,61.15
2023-04-18T15:57:38.359Z,60.79
2023-04-18T16:00:10.215Z,60.96
2023-04-18T16:02:37.075Z,61.38
2023-04-18T16:05:04.600Z,60.80
2023-04-18T16:07:34.546Z,60.73
2023-04-18T16:10:02.873Z,60.67
2023-04-18T16:12:29.495Z,60.48
2023-04-18T16:14:55.948Z,60.49
2023-04-18T16:17:22.443Z,60.80
2023-04-18T16:19:48.909Z,60.28
2023-04-18T16:22:15.389Z,61.19
2023-04-18T16:24:42.274Z,61.23
2023-04-18T16:27:08.747Z,61.49
2023-04-18T16:29:35.369Z,60.79
2023-04-18T16:32:01.857Z,61.06
2023-04-18T16:34:28.223Z,60.75
2023-04-18T16:36:55.669Z,61.05
2023-04-18T16:39:22.275Z,61.06
2023-04-18T16:41:48.644Z,61.49
2023-04-18T16:44:15.208Z,61.52
2023-04-18T16:46:42.421Z,61.13
2023-04-18T16:49:08.915Z,61.44
2023-04-18T16:51:37.162Z,62.20
2023-04-18T16:54:04.792Z,61.55
2023-04-18T16:56:31.558Z,61.66
2023-04-18T16:58:58.713Z,62.22
2023-04-18T17:01:25.149Z,62.58
2023-04-18T17:03:51.628Z,62.24
2023-04-18T17:06:19.429Z,62.42
2023-04-18T17:08:46.036Z,62.82
2023-04-18T17:11:12.425Z,62.76
2023-04-18T17:13:38.794Z,61.83
2023-04-18T17:16:05.634Z,61.52
2023-04-18T17:18:32.268Z,61.79
2023-04-18T17:20:58.646Z,62.18
2023-04-18T17:23:25.120Z,62.72
2023-04-18T17:25:51.589Z,63.53
2023-04-18T17:28:18.135Z,63.59
2023-04-18T17:30:44.611Z,63.35
2023-04-18T17:33:11.116Z,63.92
2023-04-18T17:35:40.952Z,65.01
2023-04-18T17:38:10.512Z,64.61
2023-04-18T17:40:37.151Z,64.18
2023-04-18T17:43:03.519Z,64.99
2023-04-18T17:45:29.948Z,65.69
2023-04-18T17:47:58.193Z,65.28
2023-04-18T17:50:25.000Z,64.71
2023-04-18T17:52:51.362Z,65.37
2023-04-18T17:55:17.921Z,64.91
2023-04-18T17:57:44.587Z,64.94
2023-04-18T18:00:13.459Z,64.62
2023-04-18T18:02:42.768Z,64.80
2023-04-18T18:05:13.145Z,65.64
2023-04-18T18:07:42.876Z,65.17
2023-04-18T18:10:09.991Z,65.57
2023-04-18T18:12:38.085Z,66.36
2023-04-18T18:15:05.133Z,66.50
2023-04-18T18:17:31.548Z,65.58
2023-04-18T18:19:57.963Z,65.49
2023-04-18T18:22:26.045Z,65.17
2023-04-18T18:24:52.764Z,66.04
2023-04-18T18:27:20.410Z,66.45
2023-04-18T18:29:48.041Z,66.34
2023-04-18T18:32:14.457Z,66.75
2023-04-18T18:34:40.842Z,67.05
2023-04-18T18:37:07.361Z,67.37
2023-04-18T18:39:33.941Z,67.78
2023-04-18T18:42:00.977Z,67.91
2023-04-18T18:44:27.413Z,68.37
2023-04-18T18:46:53.961Z,68.51
2023-04-18T18:49:20.991Z,68.37
2023-04-18T18:51:47.357Z,68.70
2023-04-18T18:54:13.740Z,68.82
2023-04-18T18:56:42.052Z,68.72
2023-04-18T18:59:08.428Z,68.42
2023-04-18T19:01:34.961Z,69.07
2023-04-18T19:04:01.705Z,69.40
2023-04-18T19:06:28.255Z,69.55
2023-04-18T19:08:54.696Z,69.91
2023-04-18T19:11:21.243Z,69.77
2023-04-18T19:13:47.709Z,69.88
2023-04-18T19:16:14.128Z,70.12
2023-04-18T19:18:41.471Z,69.14
2023-04-18T19:21:07.860Z,69.08
2023-04-18T19:23:34.241Z,68.62
2023-04-18T19:26:00.826Z,68.37
2023-04-18T19:28:27.675Z,68.79
2023-04-18T19:30:54.131Z,68.63
2023-04-18T19:33:21.249Z,68.79
2023-04-18T19:35:50.733Z,67.98
2023-04-18T19:38:17.151Z,68.28
2023-04-18T19:40:43.920Z,67.95
2023-04-18T19:43:10.849Z,68.07
2023-04-18T19:45:38.209Z,68.61
2023-04-18T19:48:05.210Z,68.37
2023-04-18T19:50:32.158Z,68.08
2023-04-18T19:52:58.695Z,68.57
2023-04-18T19:55:25.288Z,68.58
2023-04-18T19:57:56.558Z,68.26
2023-04-18T20:00:25.983Z,68.42
2023-04-18T20:02:52.869Z,68.46
2023-04-18T20:05:19.711Z,68.31
2023-04-18T20:07:49.225Z,68.40
2023-04-18T20:10:15.831Z,68.45
2023-04-18T20:12:42.196Z,68.04
2023-04-18T20:15:09.013Z,68.24
2023-04-18T20:17:35.515Z,68.72
2023-04-18T20:20:02.129Z,68.32
2023-04-18T20:22:28.574Z,68.44
2023-04-18T20:24:57.105Z,68.44
2023-04-18T20:27:24.037Z,68.59
2023-04-18T20:29:50.488Z,69.04
2023-04-18T20:32:16.923Z,69.06
2023-04-18T20:34:43.490Z,68.50
2023-04-18T20:37:10.004Z,68.53
2023-04-18T20:39:38.108Z,68.57
2023-04-18T20:42:04.760Z,69.26
2023-04-18T20:44:33.357Z,69.41
2023-04-18T20:46:59.765Z,68.86
2023-04-18T20:49:26.158Z,69.28
2023-04-18T20:51:52.524Z,68.77
2023-04-18T20:54:18.904Z,69.38
2023-04-18T20:56:45.306Z,68.40
2023-04-18T20:59:11.707Z,68.95
2023-04-18T21:01:38.127Z,69.17
2023-04-18T21:04:04.900Z,68.99
2023-04-18T21:06:31.402Z,68.91
2023-04-18T21:08:57.759Z,69.20
2023-04-18T21:11:24.144Z,68.89
2023-04-18T21:13:50.639Z,68.63
2023-04-18T21:16:17.159Z,69.34
2023-04-18T21:18:43.627Z,69.27
2023-04-18T21:21:10.041Z,68.76
2023-04-18T21:23:43.742Z,69.50
2023-04-18T21:26:13.050Z,69.66
2023-04-18T21:29:00.136Z,68.82
2023-04-18T21:31:29.296Z,69.04
2023-04-18T21:33:57.120Z,69.40
2023-04-18T21:36:26.358Z,69.37
2023-04-18T21:38:53.899Z,69.83
2023-04-18T21:41:20.808Z,69.84
2023-04-18T21:43:47.606Z,69.56
2023-04-18T21:46:14.182Z,69.63
2023-04-18T21:48:41.709Z,69.71
2023-04-18T21:51:14.032Z,69.80
2023-04-18T21:53:40.610Z,69.62
2023-04-18T21:56:08.016Z,69.72
2023-04-18T21:58:34.689Z,69.82
2023-04-18T22:01:01.529Z,69.77
2023-04-18T22:03:28.770Z,69.59
2023-04-18T22:05:58.872Z,69.78
2023-04-18T22:08:25.878Z,69.94
2023-04-18T22:10:57.619Z,70.40
2023-04-18T22:13:25.155Z,69.90
2023-04-18T22:15:51.876Z,70.46
2023-04-18T22:18:19.082Z,70.09
2023-04-18T22:20:46.908Z,70.12
2023-04-18T22:23:13.566Z,70.83
2023-04-18T22:25:39.955Z,70.54
2023-04-18T22:28:06.466Z,70.82
2023-04-18T22:30:32.956Z,71.13
2023-04-18T22:32:59.510Z,70.87
2023-04-18T22:35:26.391Z,71.00
2023-04-18T22:37:52.784Z,71.33
2023-04-18T22:40:19.282Z,70.99
2023-04-18T22:42:45.716Z,71.46
2023-04-18T22:45:13.477Z,71.87
2023-04-18T22:47:40.122Z,71.59
2023-04-18T22:50:07.855Z,71.72
2023-04-18T22:52:34.619Z,71.72
2023-04-18T22:55:04.452Z,72.20
2023-04-18T22:57:30.881Z,72.09
2023-04-18T22:59:57.296Z,71.89
2023-04-18T23:02:23.797Z,71.62
2023-04-18T23:04:50.630Z,72.19
2023-04-18T23:07:17.135Z,72.11
2023-04-18T23:09:43.582Z,72.07
2023-04-18T23:12:10.083Z,72.54
2023-04-18T23:14:36.589Z,72.12
2023-04-18T23:17:03.070Z,72.53
2023-04-18T23:19:29.511Z,72.29
2023-04-18T23:21:55.967Z,72.57
2023-04-18T23:24:22.372Z,72.78
2023-04-18T23:26:48.741Z,73.04
2023-04-18T23:29:15.268Z,72.94
2023-04-18T23:31:41.693Z,72.81
2023-04-18T23:34:08.129Z,73.22
2023-04-18T23:36:34.691Z,72.91
2023-04-18T23:39:02.095Z,73.25
2023-04-18T23:41:28.549Z,73.24
2023-04-18T23:43:54.994Z,73.42
2023-04-18T23:46:21.426Z,73.50
2023-04-18T23:48:47.818Z,73.96
2023-04-18T23:51:14.289Z,74.20
2023-04-18T23:53:40.695Z,74.16
2023-04-18T23:56:07.194Z,74.03
2023-04-18T23:58:33.561Z,74.58
